Time;durP1;ratioP1;P1;durP2;ratioP2;P2;SDS_P1;SDS_P2;PMS_P1;PMS_P2;Temp;Humidity;BMP_temperature;BMP_pressure;BME280_temperature;BME280_humidity;BME280_pressure;Samples;Min_cycle;Max_cycle;Signal;HPM_P1;HPM_P2
2023/07/27 00:02:22;;;;;;;3.00;2.10;;;12.80;99.90;;;;;;5010002;28;20924;-69
2023/07/27 00:04:49;;;;;;;2.50;2.03;;;12.80;99.90;;;;;;5024535;28;20477;-70
2023/07/27 00:11:35;;;;;;;2.37;2.00;;;12.70;99.90;;;;;;4971857;28;20548;-94
2023/07/27 00:19:47;;;;;;;3.00;2.67;;;12.70;99.90;;;;;;5033107;28;20456;-73
2023/07/27 00:22:14;;;;;;;3.17;2.30;;;12.70;99.90;;;;;;5034336;28;20456;-75
2023/07/27 00:24:40;;;;;;;3.63;2.40;;;12.60;99.90;;;;;;5020011;28;20488;-76
2023/07/27 00:27:07;;;;;;;1.80;1.63;;;12.60;99.90;;;;;;5023467;28;20838;-75
2023/07/27 00:29:34;;;;;;;2.93;2.40;;;12.60;99.90;;;;;;5034069;28;20460;-75
2023/07/27 00:32:01;;;;;;;2.30;1.93;;;12.70;99.90;;;;;;5034086;28;20456;-76
2023/07/27 00:34:27;;;;;;;2.60;2.40;;;12.70;99.90;;;;;;5034565;28;20484;-75
2023/07/27 00:36:55;;;;;;;2.97;2.30;;;12.70;99.90;;;;;;5033511;28;20971;-75
2023/07/27 00:39:22;;;;;;;2.73;2.10;;;12.80;99.90;;;;;;5033809;28;20463;-76
2023/07/27 00:41:49;;;;;;;2.53;2.30;;;12.70;99.90;;;;;;5033889;28;20468;-76
2023/07/27 00:44:16;;;;;;;2.27;2.07;;;12.80;99.90;;;;;;5033752;28;20476;-75
2023/07/27 00:46:43;;;;;;;3.20;2.40;;;12.80;99.90;;;;;;5033216;28;20473;-75
2023/07/27 00:49:10;;;;;;;2.33;2.10;;;12.80;99.90;;;;;;5033411;28;20991;-75
2023/07/27 00:51:39;;;;;;;4.50;2.50;;;12.80;99.90;;;;;;5033591;28;20577;-75
2023/07/27 00:54:09;;;;;;;3.83;2.10;;;12.90;99.90;;;;;;5033701;28;20814;-75
2023/07/27 00:56:37;;;;;;;2.47;2.10;;;12.90;99.90;;;;;;5033382;28;20471;-76
2023/07/27 00:59:06;;;;;;;2.43;2.20;;;12.90;99.90;;;;;;5033644;28;20496;-76
2023/07/27 01:01:33;;;;;;;5.23;2.50;;;12.90;99.90;;;;;;5033955;28;20471;-75
2023/07/27 01:04:01;;;;;;;2.67;1.93;;;12.90;99.90;;;;;;5021100;28;20473;-74
2023/07/27 01:06:29;;;;;;;2.70;2.40;;;12.90;99.90;;;;;;5013413;28;20461;-75
2023/07/27 01:08:56;;;;;;;3.50;3.10;;;12.90;99.90;;;;;;5013469;28;20477;-75
2023/07/27 01:11:32;;;;;;;3.63;1.90;;;12.90;99.90;;;;;;5013669;28;20468;-75
2023/07/27 01:14:14;;;;;;;2.67;2.10;;;12.90;99.90;;;;;;5013691;28;20461;-75
2023/07/27 01:16:47;;;;;;;2.60;2.13;;;12.90;99.90;;;;;;5012985;28;20465;-75
2023/07/27 01:19:43;;;;;;;2.83;2.40;;;13.00;99.90;;;;;;5013198;28;20870;-75
2023/07/27 01:22:22;;;;;;;2.10;1.90;;;13.00;99.90;;;;;;5012471;28;20473;-74
2023/07/27 01:25:06;;;;;;;1.70;1.60;;;12.90;99.90;;;;;;5013021;28;20488;-75
2023/07/27 01:27:47;;;;;;;2.37;2.17;;;12.90;99.90;;;;;;5012100;28;20564;-75
2023/07/27 01:30:42;;;;;;;2.37;2.13;;;12.90;99.90;;;;;;5012900;28;20837;-75
2023/07/27 01:33:13;;;;;;;3.90;1.97;;;12.90;99.90;;;;;;5012791;28;20472;-75
2023/07/27 01:35:46;;;;;;;2.22;2.03;;;13.00;99.90;;;;;;5012783;28;20453;-75
2023/07/27 01:38:14;;;;;;;2.40;2.20;;;13.00;99.90;;;;;;5012251;28;20218;-75
2023/07/27 01:40:43;;;;;;;2.43;2.20;;;13.00;99.90;;;;;;5013009;28;20458;-75
2023/07/27 01:43:11;;;;;;;2.37;2.17;;;13.00;99.90;;;;;;5012597;28;20484;-75
2023/07/27 01:45:39;;;;;;;2.50;2.30;;;13.00;99.90;;;;;;5012769;28;20477;-75
2023/07/27 01:48:07;;;;;;;2.60;2.27;;;13.10;99.90;;;;;;5012172;28;20496;-74
2023/07/27 01:50:37;;;;;;;2.37;2.17;;;13.00;99.90;;;;;;5032573;28;20468;-75
2023/07/27 01:53:05;;;;;;;2.60;2.00;;;13.00;99.90;;;;;;5031997;28;20468;-75
2023/07/27 01:55:33;;;;;;;1.90;1.70;;;13.00;99.90;;;;;;5004591;28;20457;-75
2023/07/27 01:58:00;;;;;;;2.03;1.83;;;13.00;99.90;;;;;;5012247;28;20508;-75
2023/07/27 02:00:28;;;;;;;4.90;2.23;;;13.00;99.90;;;;;;5012326;28;20457;-75
2023/07/27 02:02:56;;;;;;;2.17;1.97;;;13.00;99.90;;;;;;5012692;28;20461;-75
2023/07/27 02:05:23;;;;;;;2.43;1.70;;;13.00;99.90;;;;;;5011865;28;20481;-74
2023/07/27 02:07:51;;;;;;;2.03;1.83;;;13.00;99.90;;;;;;5012176;28;20478;-75
2023/07/27 02:10:21;;;;;;;1.83;1.73;;;13.00;99.90;;;;;;5013930;28;20461;-75
2023/07/27 02:12:56;;;;;;;2.37;1.67;;;13.00;99.90;;;;;;5032236;28;20461;-75
2023/07/27 02:15:26;;;;;;;1.60;1.50;;;13.10;99.90;;;;;;5031669;28;20849;-75
2023/07/27 02:17:59;;;;;;;1.93;1.73;;;13.10;99.90;;;;;;5031620;28;20491;-75
2023/07/27 02:20:31;;;;;;;2.67;2.13;;;13.10;99.90;;;;;;5031660;28;20471;-75
2023/07/27 02:23:00;;;;;;;2.30;1.87;;;13.10;99.90;;;;;;5032072;28;20461;-75
2023/07/27 02:25:27;;;;;;;1.87;1.67;;;13.10;99.90;;;;;;5031533;28;20484;-75
2023/07/27 02:27:54;;;;;;;1.93;1.73;;;13.10;99.90;;;;;;5031469;28;20487;-75
2023/07/27 02:30:20;;;;;;;1.70;1.60;;;13.10;99.90;;;;;;5030069;28;20486;-75
2023/07/27 02:32:47;;;;;;;1.93;1.73;;;13.10;99.90;;;;;;5012032;28;20864;-75
2023/07/27 02:35:14;;;;;;;2.20;2.00;;;13.10;99.90;;;;;;5011866;28;20461;-75
2023/07/27 02:37:41;;;;;;;2.50;1.87;;;13.10;99.90;;;;;;5011652;28;20489;-75
2023/07/27 02:40:09;;;;;;;2.97;2.30;;;13.20;99.90;;;;;;5011731;28;20469;-75
2023/07/27 02:42:36;;;;;;;2.43;2.23;;;13.20;99.90;;;;;;5012104;28;20830;-75
2023/07/27 02:45:03;;;;;;;2.30;2.10;;;13.20;99.90;;;;;;5011227;28;20500;-74
2023/07/27 02:47:30;;;;;;;1.93;1.70;;;13.20;99.90;;;;;;5011031;28;20477;-75
2023/07/27 02:49:57;;;;;;;4.90;2.27;;;13.20;99.90;;;;;;5011606;28;20461;-75
2023/07/27 02:52:23;;;;;;;2.00;1.80;;;13.20;99.90;;;;;;5011318;28;20465;-75
2023/07/27 02:54:50;;;;;;;2.10;1.90;;;13.30;99.90;;;;;;5011446;28;20461;-75
2023/07/27 02:57:18;;;;;;;2.47;1.90;;;13.30;99.90;;;;;;5010870;28;20488;-75
2023/07/27 02:59:45;;;;;;;3.37;1.90;;;13.30;99.90;;;;;;5010592;28;20457;-75
2023/07/27 03:02:12;;;;;;;2.60;1.87;;;13.30;99.90;;;;;;5011600;28;20457;-75
2023/07/27 03:04:38;;;;;;;2.23;1.70;;;13.30;99.90;;;;;;5011269;28;20825;-74
2023/07/27 03:07:06;;;;;;;1.80;1.60;;;13.30;99.90;;;;;;5011189;28;20494;-75
2023/07/27 03:09:33;;;;;;;2.00;1.67;;;13.30;99.90;;;;;;5010528;28;20476;-75
2023/07/27 03:12:00;;;;;;;3.03;1.67;;;13.30;99.90;;;;;;5011411;28;20458;-75
2023/07/27 03:14:28;;;;;;;2.90;1.93;;;13.30;99.90;;;;;;5011238;28;20842;-75
2023/07/27 03:16:54;;;;;;;2.53;2.30;;;13.40;99.90;;;;;;5010558;28;20454;-75
2023/07/27 03:19:21;;;;;;;2.67;2.37;;;13.30;99.90;;;;;;5011033;28;20464;-75
2023/07/27 03:21:48;;;;;;;2.10;2.00;;;13.30;99.90;;;;;;5011211;28;20461;-75
2023/07/27 03:24:16;;;;;;;3.57;2.10;;;13.40;99.90;;;;;;5010905;28;20469;-75
2023/07/27 03:26:43;;;;;;;3.73;2.37;;;13.40;99.90;;;;;;5010558;28;21040;-75
2023/07/27 03:29:10;;;;;;;2.50;2.30;;;13.40;99.90;;;;;;5011015;28;20984;-75
2023/07/27 03:31:39;;;;;;;2.87;2.40;;;13.40;99.90;;;;;;5004676;28;20465;-75
2023/07/27 03:34:06;;;;;;;2.40;2.20;;;13.40;99.90;;;;;;5006255;28;20469;-75
2023/07/27 03:36:32;;;;;;;4.53;2.57;;;13.40;99.90;;;;;;5005761;28;20460;-75
2023/07/27 03:38:59;;;;;;;2.10;1.80;;;13.40;99.90;;;;;;5007160;28;20480;-76
2023/07/27 03:41:26;;;;;;;2.60;2.23;;;13.40;99.90;;;;;;5004109;28;20979;-76
2023/07/27 03:43:53;;;;;;;2.30;2.10;;;13.50;99.90;;;;;;5004816;28;20819;-74
2023/07/27 03:46:19;;;;;;;2.77;1.90;;;13.40;99.90;;;;;;5004179;28;20686;-75
2023/07/27 03:48:49;;;;;;;3.17;2.20;;;13.40;99.90;;;;;;5002517;28;20477;-74
2023/07/27 03:51:16;;;;;;;2.87;2.30;;;13.40;99.90;;;;;;5000972;28;20462;-74
2023/07/27 03:53:42;;;;;;;2.33;2.13;;;13.40;99.90;;;;;;5005470;28;20467;-74
2023/07/27 03:56:09;;;;;;;2.50;2.03;;;13.40;99.90;;;;;;5003485;28;20819;-74
2023/07/27 03:58:36;;;;;;;2.00;1.80;;;13.50;99.90;;;;;;5003778;28;20521;-74
2023/07/27 04:01:03;;;;;;;1.70;1.57;;;13.50;99.90;;;;;;5002755;28;20470;-74
2023/07/27 04:03:30;;;;;;;2.30;1.93;;;13.50;99.90;;;;;;5004484;28;20464;-75
2023/07/27 04:05:58;;;;;;;1.80;1.67;;;13.50;99.90;;;;;;5001596;28;20482;-74
2023/07/27 04:08:25;;;;;;;2.57;2.03;;;13.50;99.90;;;;;;5009874;28;20942;-73
2023/07/27 04:10:51;;;;;;;2.30;1.70;;;13.50;99.90;;;;;;5010729;28;20828;-74
2023/07/27 04:13:18;;;;;;;2.50;1.67;;;13.50;99.90;;;;;;5010501;28;20461;-74
2023/07/27 04:15:45;;;;;;;2.37;1.63;;;13.50;99.90;;;;;;5014049;28;20465;-74
2023/07/27 04:18:11;;;;;;;2.03;1.63;;;13.50;99.90;;;;;;5029580;28;20491;-75
2023/07/27 04:20:38;;;;;;;2.33;2.13;;;13.50;99.90;;;;;;5029944;28;20464;-75
2023/07/27 04:23:06;;;;;;;2.10;1.90;;;13.40;99.90;;;;;;5015945;28;20469;-75
2023/07/27 04:25:33;;;;;;;1.97;1.70;;;13.40;99.90;;;;;;5009629;28;20860;-75
2023/07/27 04:28:00;;;;;;;2.50;2.30;;;13.50;99.90;;;;;;5004015;28;20922;-75
2023/07/27 04:30:26;;;;;;;2.40;2.00;;;13.50;99.90;;;;;;5008845;28;20465;-75
2023/07/27 04:32:53;;;;;;;2.83;2.23;;;13.50;99.90;;;;;;5020435;28;20535;-75
2023/07/27 04:35:20;;;;;;;2.10;1.67;;;13.50;99.90;;;;;;5019868;28;20467;-75
2023/07/27 04:37:46;;;;;;;2.07;1.77;;;13.50;99.90;;;;;;5027018;28;20480;-75
2023/07/27 04:40:15;;;;;;;2.20;1.80;;;13.60;99.90;;;;;;5027863;28;20460;-74
2023/07/27 04:42:41;;;;;;;1.97;1.77;;;13.60;99.90;;;;;;5027834;28;20476;-75
2023/07/27 04:45:09;;;;;;;3.30;2.03;;;13.60;99.90;;;;;;5012917;28;20461;-75
2023/07/27 04:47:36;;;;;;;5.30;2.17;;;13.70;99.90;;;;;;5025504;28;20484;-75
2023/07/27 04:50:03;;;;;;;2.60;1.77;;;13.70;99.90;;;;;;5010380;28;20856;-75
2023/07/27 04:52:30;;;;;;;2.63;1.83;;;13.70;99.90;;;;;;5026376;28;20456;-74
2023/07/27 04:54:56;;;;;;;3.67;2.50;;;13.70;99.90;;;;;;5014666;28;20464;-74
2023/07/27 04:57:24;;;;;;;2.60;1.97;;;13.80;99.90;;;;;;5029156;28;20516;-75
2023/07/27 04:59:51;;;;;;;2.40;2.07;;;13.80;99.90;;;;;;5017713;28;20477;-75
2023/07/27 05:02:18;;;;;;;3.03;1.90;;;13.80;99.90;;;;;;5018078;28;20460;-74
2023/07/27 05:04:45;;;;;;;2.10;1.73;;;13.90;99.90;;;;;;5033010;28;20944;-74
2023/07/27 05:07:11;;;;;;;2.37;1.70;;;13.90;99.90;;;;;;5024858;28;20487;-74
2023/07/27 05:09:38;;;;;;;2.07;1.87;;;14.00;99.90;;;;;;5033037;28;20467;-74
2023/07/27 05:12:05;;;;;;;2.30;2.10;;;14.00;99.90;;;;;;5019847;28;20838;-74
2023/07/27 05:14:34;;;;;;;2.10;1.90;;;14.00;99.90;;;;;;5014394;28;20465;-74
2023/07/27 05:17:01;;;;;;;2.10;1.77;;;14.00;99.90;;;;;;5032702;28;20456;-75
2023/07/27 05:19:27;;;;;;;2.20;2.00;;;14.00;99.90;;;;;;5012425;28;20986;-75
2023/07/27 05:21:54;;;;;;;2.13;1.80;;;14.10;99.90;;;;;;5007388;28;20466;-75
2023/07/27 05:24:21;;;;;;;2.87;2.20;;;14.10;99.90;;;;;;5006349;28;20456;-75
2023/07/27 05:26:48;;;;;;;2.07;1.87;;;14.10;99.90;;;;;;5012184;28;20484;-75
2023/07/27 05:29:14;;;;;;;2.30;2.03;;;14.10;99.90;;;;;;5012204;28;20511;-75
2023/07/27 05:31:42;;;;;;;2.20;2.00;;;14.10;99.90;;;;;;5008959;28;20472;-75
2023/07/27 05:34:09;;;;;;;2.17;1.70;;;14.10;99.90;;;;;;5027492;28;20468;-75
2023/07/27 05:36:36;;;;;;;2.40;2.20;;;14.20;99.90;;;;;;5022874;28;20955;-75
2023/07/27 05:39:03;;;;;;;2.23;2.03;;;14.20;99.90;;;;;;5017491;28;20855;-75
2023/07/27 05:41:30;;;;;;;2.60;2.27;;;14.20;99.90;;;;;;5026333;28;20471;-75
2023/07/27 05:43:56;;;;;;;2.80;2.13;;;14.30;99.90;;;;;;5032309;28;20469;-74
2023/07/27 05:46:23;;;;;;;2.10;1.50;;;14.40;99.90;;;;;;5023849;28;20485;-75
2023/07/27 05:48:51;;;;;;;3.40;1.80;;;14.40;99.90;;;;;;5011636;28;20477;-75
2023/07/27 05:51:18;;;;;;;2.57;2.07;;;14.40;99.90;;;;;;5012341;28;20457;-75
2023/07/27 05:53:45;;;;;;;2.27;2.07;;;14.50;99.90;;;;;;5012089;28;20457;-75
2023/07/27 05:56:12;;;;;;;1.83;1.50;;;14.50;99.90;;;;;;5017700;28;20456;-75
2023/07/27 05:58:38;;;;;;;2.40;1.50;;;14.50;99.90;;;;;;5013906;28;20492;-75
2023/07/27 06:01:05;;;;;;;2.30;2.20;;;14.50;99.90;;;;;;5012508;28;20468;-75
2023/07/27 06:03:32;;;;;;;3.00;2.30;;;14.50;99.90;;;;;;5011986;28;20465;-75
2023/07/27 06:08:36;;;;;;;2.73;1.77;;;14.60;99.90;;;;;;4862198;26;20476;-92
2023/07/27 06:11:04;;;;;;;2.23;2.03;;;14.60;99.90;;;;;;5050315;28;20440;-93
2023/07/27 06:13:31;;;;;;;1.83;1.63;;;14.60;99.90;;;;;;5048719;28;20555;-93
2023/07/27 06:15:58;;;;;;;2.03;1.80;;;14.70;99.90;;;;;;5028290;28;20469;-92
2023/07/27 06:18:25;;;;;;;2.33;2.13;;;14.80;99.90;;;;;;5043860;28;20472;-92
2023/07/27 06:20:52;;;;;;;3.77;2.37;;;14.80;99.90;;;;;;5046633;28;20452;-94
2023/07/27 06:23:18;;;;;;;2.60;1.97;;;14.90;99.90;;;;;;5030922;28;20490;-93
2023/07/27 06:25:47;;;;;;;2.27;1.97;;;14.90;99.90;;;;;;5027779;28;20847;-92
2023/07/27 06:28:14;;;;;;;1.93;1.80;;;15.00;99.90;;;;;;5027443;28;20482;-95
2023/07/27 06:30:41;;;;;;;2.23;1.60;;;15.00;99.90;;;;;;5029219;28;20480;-94
2023/07/27 06:33:08;;;;;;;3.97;2.13;;;15.10;99.90;;;;;;5030591;28;20464;-94
2023/07/27 06:35:35;;;;;;;3.00;2.10;;;15.10;99.90;;;;;;5032036;28;20457;-93
2023/07/27 06:38:01;;;;;;;2.87;2.10;;;15.20;99.90;;;;;;5026947;28;20485;-94
2023/07/27 06:40:28;;;;;;;2.27;1.80;;;15.20;99.90;;;;;;5034944;28;20458;-92
2023/07/27 06:42:56;;;;;;;2.80;2.27;;;15.10;99.90;;;;;;5036556;28;20457;-93
2023/07/27 06:45:23;;;;;;;2.07;1.87;;;15.20;99.90;;;;;;5029940;28;20484;-93
2023/07/27 06:47:50;;;;;;;3.13;2.00;;;15.30;99.90;;;;;;5041791;28;20496;-92
2023/07/27 06:50:16;;;;;;;3.10;2.30;;;15.30;99.90;;;;;;5025780;28;20481;-93
2023/07/27 06:52:43;;;;;;;2.07;1.87;;;15.40;99.90;;;;;;5026473;28;20461;-93
2023/07/27 06:55:10;;;;;;;2.60;1.63;;;15.40;99.90;;;;;;5026360;28;20484;-92
2023/07/27 06:57:37;;;;;;;2.60;1.77;;;15.50;99.90;;;;;;5026745;28;20500;-92
2023/07/27 07:00:07;;;;;;;1.87;1.77;;;15.60;99.90;;;;;;5029029;28;20458;-93
2023/07/27 07:02:34;;;;;;;2.10;1.90;;;15.60;99.90;;;;;;5028902;28;20561;-93
2023/07/27 07:05:02;;;;;;;2.00;1.90;;;15.70;99.90;;;;;;5018402;28;20462;-92
2023/07/27 07:07:29;;;;;;;2.23;1.60;;;15.70;99.90;;;;;;5027762;28;20491;-92
2023/07/27 07:09:56;;;;;;;2.23;1.97;;;15.80;99.90;;;;;;5031873;28;20470;-92
2023/07/27 07:12:23;;;;;;;2.63;1.83;;;15.80;99.90;;;;;;5030473;28;20460;-93
2023/07/27 07:14:49;;;;;;;2.80;1.90;;;15.80;99.90;;;;;;5030315;28;20461;-93
2023/07/27 07:17:18;;;;;;;2.77;1.57;;;15.80;99.90;;;;;;5028303;28;20477;-93
2023/07/27 07:19:45;;;;;;;2.33;2.03;;;15.90;99.90;;;;;;5027967;28;20460;-93
2023/07/27 07:22:12;;;;;;;2.30;1.47;;;15.90;99.90;;;;;;5031043;28;20465;-91
2023/07/27 07:24:39;;;;;;;2.47;2.27;;;15.80;99.90;;;;;;5028504;28;20532;-91
2023/07/27 07:27:05;;;;;;;2.37;1.97;;;15.80;99.90;;;;;;5025407;28;21029;-93
2023/07/27 07:29:32;;;;;;;3.13;1.80;;;15.80;99.90;;;;;;5024512;28;20970;-93
2023/07/27 07:31:59;;;;;;;2.60;1.90;;;15.90;99.90;;;;;;5027677;28;20469;-94
2023/07/27 07:34:27;;;;;;;2.30;1.70;;;15.90;99.90;;;;;;5028116;28;20954;-93
2023/07/27 07:36:54;;;;;;;2.33;1.70;;;15.90;99.90;;;;;;5025184;28;20496;-93
2023/07/27 07:39:21;;;;;;;2.17;1.53;;;15.90;99.90;;;;;;5024716;28;20488;-92
2023/07/27 07:41:48;;;;;;;2.40;2.00;;;16.00;99.90;;;;;;5026435;28;20819;-94
2023/07/27 07:44:14;;;;;;;1.93;1.73;;;16.00;99.90;;;;;;5028725;28;20472;-93
2023/07/27 07:46:42;;;;;;;2.50;1.97;;;16.00;99.90;;;;;;5026916;28;20488;-91
2023/07/27 07:49:08;;;;;;;2.03;1.60;;;16.00;99.90;;;;;;5025130;28;20518;-93
2023/07/27 07:51:36;;;;;;;2.20;2.00;;;15.90;99.90;;;;;;5024335;28;20474;-94
2023/07/27 07:54:09;;;;;;;2.03;1.60;;;15.90;99.90;;;;;;5028179;28;20774;-93
2023/07/27 07:56:36;;;;;;;2.40;1.83;;;15.90;99.90;;;;;;5028509;28;20575;-93
2023/07/27 07:59:03;;;;;;;2.10;1.73;;;16.00;99.90;;;;;;5026240;28;20458;-93
2023/07/27 08:01:30;;;;;;;2.20;2.00;;;16.00;99.90;;;;;;5024713;28;20473;-93
2023/07/27 08:03:57;;;;;;;2.43;2.23;;;16.00;99.90;;;;;;5027046;28;20466;-93
2023/07/27 08:06:24;;;;;;;2.00;1.70;;;15.90;99.90;;;;;;5028338;28;21005;-94
2023/07/27 08:08:52;;;;;;;2.60;2.40;;;16.00;99.90;;;;;;5027728;28;20962;-92
2023/07/27 08:11:19;;;;;;;2.70;1.50;;;15.90;99.90;;;;;;5025056;28;20459;-93
2023/07/27 08:13:45;;;;;;;2.47;1.90;;;16.10;99.90;;;;;;5025206;28;20461;-93
2023/07/27 08:16:12;;;;;;;2.20;2.00;;;16.10;99.90;;;;;;5030942;28;20467;-93
2023/07/27 08:18:39;;;;;;;2.37;1.60;;;16.10;99.90;;;;;;5032788;28;20463;-93
2023/07/27 08:21:07;;;;;;;3.07;1.70;;;16.20;99.90;;;;;;5026495;28;20470;-93
2023/07/27 08:23:34;;;;;;;1.87;1.60;;;16.30;99.90;;;;;;5025337;28;20463;-92
2023/07/27 08:26:03;;;;;;;2.30;1.80;;;16.30;99.90;;;;;;5028244;28;20467;-92
2023/07/27 08:28:30;;;;;;;3.10;2.10;;;16.30;99.90;;;;;;5029488;28;20485;-92
2023/07/27 08:30:57;;;;;;;1.90;1.70;;;16.30;99.90;;;;;;5029374;28;20462;-93
2023/07/27 08:33:23;;;;;;;2.07;1.90;;;16.40;99.90;;;;;;5027184;28;20465;-94
2023/07/27 08:35:50;;;;;;;3.83;2.37;;;16.40;99.90;;;;;;5026458;28;20474;-92
2023/07/27 08:38:17;;;;;;;1.97;1.60;;;16.40;99.90;;;;;;5031917;28;20489;-93
2023/07/27 08:40:53;;;;;;;2.00;1.60;;;16.40;99.90;;;;;;5033049;28;20467;-92
2023/07/27 08:43:22;;;;;;;2.63;2.00;;;16.40;99.90;;;;;;5028608;28;20471;-93
2023/07/27 08:45:49;;;;;;;2.30;1.90;;;16.50;99.90;;;;;;5029098;28;20465;-93
2023/07/27 08:48:16;;;;;;;2.20;2.00;;;16.50;99.90;;;;;;5032055;28;20515;-93
2023/07/27 08:50:44;;;;;;;3.10;2.20;;;16.50;99.90;;;;;;5032844;28;20475;-93
2023/07/27 08:53:20;;;;;;;4.63;1.80;;;16.50;99.90;;;;;;5020638;28;20469;-93
2023/07/27 08:55:47;;;;;;;2.37;2.17;;;16.50;99.90;;;;;;5027306;28;20844;-92
2023/07/27 08:58:15;;;;;;;2.10;1.90;;;16.60;99.90;;;;;;5033172;28;20485;-93
2023/07/27 09:00:43;;;;;;;6.10;1.80;;;16.70;99.90;;;;;;5034538;28;20469;-94
2023/07/27 09:03:10;;;;;;;2.40;2.10;;;16.70;99.90;;;;;;5045734;28;20466;-91
2023/07/27 09:05:49;;;;;;;1.73;1.63;;;16.80;99.90;;;;;;5037190;28;20548;-93
2023/07/27 09:08:15;;;;;;;2.10;1.80;;;16.80;99.90;;;;;;5023573;28;20490;-93
2023/07/27 09:10:44;;;;;;;2.07;1.87;;;16.80;99.90;;;;;;5031178;28;20461;-93
2023/07/27 09:13:11;;;;;;;1.77;1.67;;;16.90;99.90;;;;;;5033882;28;20473;-92
2023/07/27 09:15:43;;;;;;;3.03;1.70;;;16.90;99.90;;;;;;5034029;28;20459;-93
2023/07/27 09:18:12;;;;;;;1.80;1.70;;;17.00;99.90;;;;;;5029570;28;20615;-93
2023/07/27 09:20:40;;;;;;;2.97;2.30;;;17.00;99.90;;;;;;5029374;28;20466;-93
2023/07/27 09:23:07;;;;;;;2.27;1.93;;;16.90;99.90;;;;;;5032956;28;20470;-92
2023/07/27 09:25:34;;;;;;;2.30;1.93;;;17.00;99.90;;;;;;5033184;28;20456;-93
2023/07/27 09:28:00;;;;;;;1.80;1.60;;;17.00;99.90;;;;;;5035425;28;21217;-94
2023/07/27 09:30:27;;;;;;;2.40;1.73;;;17.00;99.90;;;;;;5034125;28;20460;-93
2023/07/27 09:32:55;;;;;;;2.37;2.17;;;16.90;99.90;;;;;;5027829;28;20471;-94
2023/07/27 09:35:22;;;;;;;2.80;1.90;;;16.90;99.90;;;;;;5044493;28;20505;-96
2023/07/27 09:37:51;;;;;;;2.00;1.90;;;16.90;99.90;;;;;;5039762;23;20498;-72
2023/07/27 09:40:23;;;;;;;1.50;1.40;;;16.90;99.90;;;;;;5012742;28;20475;-72
2023/07/27 09:42:50;;;;;;;2.40;1.67;;;16.90;99.90;;;;;;5012580;28;20465;-71
2023/07/27 09:45:17;;;;;;;2.10;1.40;;;16.90;99.90;;;;;;5012611;28;20464;-72
2023/07/27 09:47:45;;;;;;;2.30;1.97;;;16.90;99.90;;;;;;5011515;28;20518;-71
2023/07/27 09:50:13;;;;;;;2.60;2.03;;;16.90;99.90;;;;;;5011807;28;20468;-71
2023/07/27 09:52:40;;;;;;;2.70;1.53;;;16.90;99.90;;;;;;5011955;28;20471;-71
2023/07/27 09:55:08;;;;;;;2.57;2.37;;;16.90;99.90;;;;;;5012140;28;20459;-71
2023/07/27 09:57:35;;;;;;;2.00;1.80;;;16.80;99.90;;;;;;5012013;28;20523;-72
2023/07/27 10:00:06;;;;;;;3.40;2.23;;;16.80;99.90;;;;;;5011815;28;20962;-71
2023/07/27 10:02:35;;;;;;;2.63;2.27;;;16.90;99.90;;;;;;5012446;28;20963;-72
2023/07/27 10:05:04;;;;;;;2.20;2.00;;;16.90;99.90;;;;;;5011892;28;20464;-71
2023/07/27 10:07:34;;;;;;;2.10;1.90;;;16.90;99.90;;;;;;5011877;28;20487;-72
2023/07/27 10:10:27;;;;;;;2.03;1.83;;;16.90;99.90;;;;;;5011825;28;20962;-71
2023/07/27 10:12:57;;;;;;;3.03;2.13;;;16.90;99.90;;;;;;5011846;28;20517;-71
2023/07/27 10:15:27;;;;;;;2.80;1.80;;;16.90;99.90;;;;;;5012279;28;20491;-72
2023/07/27 10:17:58;;;;;;;1.70;1.60;;;16.90;99.90;;;;;;5011595;28;20476;-73
2023/07/27 10:20:27;;;;;;;9.87;2.37;;;16.90;99.90;;;;;;5012002;28;20502;-72
2023/07/27 10:23:10;;;;;;;1.70;1.60;;;16.90;99.90;;;;;;5011641;28;20460;-72
2023/07/27 10:26:03;;;;;;;2.13;1.97;;;17.00;99.90;;;;;;5012032;28;20459;-72
2023/07/27 10:28:37;;;;;;;2.00;1.90;;;17.10;99.90;;;;;;5011644;28;20575;-72
2023/07/27 10:31:19;;;;;;;1.73;1.63;;;17.10;99.90;;;;;;5011882;28;20500;-72
2023/07/27 10:33:46;;;;;;;3.10;1.80;;;17.20;99.90;;;;;;5012014;28;20549;-71
2023/07/27 10:36:15;;;;;;;1.93;1.70;;;17.30;99.90;;;;;;5010741;28;20499;-71
2023/07/27 10:38:51;;;;;;;2.10;1.90;;;17.50;99.90;;;;;;5011597;28;20488;-71
2023/07/27 10:41:21;;;;;;;2.23;1.97;;;17.60;99.90;;;;;;5011463;28;20468;-71
2023/07/27 10:44:17;;;;;;;2.40;2.13;;;17.60;99.90;;;;;;5011665;28;20477;-72
2023/07/27 10:46:47;;;;;;;1.97;1.73;;;17.80;99.90;;;;;;5010879;28;20467;-71
2023/07/27 10:49:16;;;;;;;2.40;1.80;;;18.00;99.90;;;;;;5011049;28;21132;-71
2023/07/27 10:51:44;;;;;;;2.43;1.60;;;18.10;99.90;;;;;;5011582;28;20611;-71
2023/07/27 10:54:13;;;;;;;2.00;1.80;;;18.20;99.90;;;;;;5011292;28;20525;-72
2023/07/27 10:56:42;;;;;;;2.20;2.00;;;18.30;99.90;;;;;;5010890;28;20466;-71
2023/07/27 10:59:12;;;;;;;2.00;1.60;;;18.40;99.90;;;;;;5010831;28;20872;-72
2023/07/27 11:01:39;;;;;;;2.30;2.10;;;18.40;99.90;;;;;;5011330;28;20461;-72
2023/07/27 11:04:06;;;;;;;1.97;1.83;;;18.40;99.90;;;;;;5011022;28;20462;-72
2023/07/27 11:06:42;;;;;;;2.00;1.80;;;18.40;99.90;;;;;;5010959;28;20469;-72
2023/07/27 11:09:15;;;;;;;2.10;1.87;;;18.60;99.90;;;;;;5010803;28;20511;-71
2023/07/27 11:11:42;;;;;;;2.20;2.00;;;18.80;99.90;;;;;;5010952;28;20468;-71
2023/07/27 11:14:09;;;;;;;1.90;1.80;;;18.90;99.90;;;;;;5010859;28;20464;-72
2023/07/27 11:16:37;;;;;;;3.43;1.83;;;19.00;99.90;;;;;;5010671;28;21015;-72
2023/07/27 11:19:06;;;;;;;2.17;1.97;;;19.10;99.90;;;;;;5010571;28;20994;-71
2023/07/27 11:21:38;;;;;;;2.00;1.80;;;19.20;99.90;;;;;;5011008;28;20500;-72
2023/07/27 11:24:06;;;;;;;2.03;1.83;;;19.20;99.90;;;;;;5010469;28;20462;-72
2023/07/27 11:26:35;;;;;;;2.87;2.03;;;19.20;99.90;;;;;;5010320;28;20469;-72
2023/07/27 11:29:01;;;;;;;2.77;2.17;;;19.20;99.90;;;;;;5007464;28;20493;-72
2023/07/27 11:31:29;;;;;;;1.90;1.70;;;19.20;99.90;;;;;;5010639;28;20956;-71
2023/07/27 11:33:58;;;;;;;2.37;1.60;;;19.20;99.90;;;;;;5010899;28;20466;-72
2023/07/27 11:36:27;;;;;;;2.17;1.87;;;19.20;99.90;;;;;;5009581;28;20462;-71
2023/07/27 11:38:54;;;;;;;1.50;1.37;;;19.10;99.90;;;;;;5010708;28;20834;-72
2023/07/27 11:41:21;;;;;;;2.23;1.60;;;19.10;99.90;;;;;;5010539;28;20466;-71
2023/07/27 11:43:53;;;;;;;2.10;1.50;;;19.10;99.90;;;;;;5010791;28;20848;-72
2023/07/27 11:46:20;;;;;;;2.23;2.03;;;19.20;99.90;;;;;;5010078;28;20480;-71
2023/07/27 11:48:48;;;;;;;1.53;1.43;;;19.10;99.90;;;;;;5010567;28;20520;-72
2023/07/27 11:51:15;;;;;;;2.23;1.80;;;19.10;99.90;;;;;;5010174;28;20467;-72
2023/07/27 11:53:45;;;;;;;2.50;1.60;;;19.00;99.90;;;;;;5010591;28;20465;-71
2023/07/27 11:56:12;;;;;;;2.10;1.37;;;19.00;99.90;;;;;;5010014;28;20461;-71
2023/07/27 11:58:39;;;;;;;2.77;2.23;;;19.00;99.90;;;;;;5010711;28;20481;-72
2023/07/27 12:01:07;;;;;;;3.57;2.50;;;19.00;99.90;;;;;;5009964;28;20461;-71
2023/07/27 12:03:34;;;;;;;2.00;1.70;;;19.00;99.90;;;;;;5010487;28;20465;-71
2023/07/27 12:06:02;;;;;;;3.00;1.60;;;19.00;99.90;;;;;;5010167;28;20469;-72
2023/07/27 12:08:30;;;;;;;1.90;1.77;;;19.00;99.90;;;;;;5010153;28;20482;-72
2023/07/27 12:11:00;;;;;;;2.70;1.80;;;19.00;99.90;;;;;;5010105;28;20468;-72
2023/07/27 12:13:27;;;;;;;2.60;1.83;;;19.00;99.90;;;;;;5008182;28;20473;-71
2023/07/27 12:15:58;;;;;;;2.77;2.20;;;19.10;99.90;;;;;;5009727;28;20465;-71
2023/07/27 12:18:27;;;;;;;2.00;1.73;;;19.10;99.90;;;;;;5008943;28;20477;-71
2023/07/27 12:20:54;;;;;;;1.87;1.57;;;19.00;99.90;;;;;;5009558;28;20472;-71
2023/07/27 12:23:21;;;;;;;2.60;2.40;;;19.00;99.90;;;;;;5008971;28;20469;-71
2023/07/27 12:25:49;;;;;;;1.83;1.70;;;19.00;99.90;;;;;;5009261;28;20466;-71
2023/07/27 12:28:17;;;;;;;2.23;1.70;;;19.00;99.90;;;;;;5008319;28;20493;-71
2023/07/27 12:30:44;;;;;;;1.70;1.60;;;18.90;99.90;;;;;;5009643;28;20473;-71
2023/07/27 12:33:11;;;;;;;2.30;1.90;;;18.90;99.90;;;;;;5009971;28;20462;-72
2023/07/27 12:35:39;;;;;;;2.13;1.90;;;18.80;99.90;;;;;;5009907;28;20465;-71
2023/07/27 12:38:06;;;;;;;2.00;1.80;;;18.80;99.90;;;;;;5009899;28;20504;-71
2023/07/27 12:40:33;;;;;;;1.67;1.57;;;18.80;99.90;;;;;;5010278;28;20844;-71
2023/07/27 12:42:59;;;;;;;1.50;1.40;;;18.80;99.90;;;;;;5009946;28;20475;-71
2023/07/27 12:45:26;;;;;;;1.60;1.50;;;18.80;99.90;;;;;;5009730;28;20464;-71
2023/07/27 12:47:53;;;;;;;2.93;1.80;;;18.80;99.90;;;;;;5009721;28;20485;-71
2023/07/27 12:50:20;;;;;;;2.40;2.10;;;18.80;99.90;;;;;;5009260;28;20468;-71
2023/07/27 12:52:49;;;;;;;2.03;1.77;;;18.80;99.90;;;;;;5009847;28;20468;-71
2023/07/27 12:55:16;;;;;;;2.63;2.40;;;18.80;99.90;;;;;;5009723;28;20457;-71
2023/07/27 12:57:43;;;;;;;3.10;1.90;;;18.80;99.90;;;;;;5009587;28;20491;-71
2023/07/27 13:00:13;;;;;;;2.33;1.90;;;18.80;99.90;;;;;;5009975;28;20457;-72
2023/07/27 13:02:40;;;;;;;2.93;2.13;;;18.90;99.90;;;;;;5009731;28;20519;-71
2023/07/27 13:05:12;;;;;;;1.60;1.50;;;18.90;99.90;;;;;;5009850;28;20465;-71
2023/07/27 13:07:40;;;;;;;2.00;1.67;;;19.00;99.90;;;;;;5009564;28;20572;-71